sensor_id;sensor_type;location;lat;lon;timestamp;P1;durP1;ratioP1;P2;durP2;ratioP2
45011;SDS011;63444;48.148;11.542;2023-08-17T00:00:01;4.22;;;3.80;;
45011;SDS011;63444;48.148;11.542;2023-08-17T00:02:33;6.15;;;4.03;;
45011;SDS011;63444;48.148;11.542;2023-08-17T00:05:00;4.90;;;4.43;;
45011;SDS011;63444;48.148;11.542;2023-08-17T00:07:26;5.18;;;4.65;;
45011;SDS011;63444;48.148;11.542;2023-08-17T00:09:51;4.93;;;4.18;;
45011;SDS011;63444;48.148;11.542;2023-08-17T00:12:17;5.50;;;4.75;;
45011;SDS011;63444;48.148;11.542;2023-08-17T00:14:43;5.47;;;4.82;;
45011;SDS011;63444;48.148;11.542;2023-08-17T00:17:08;8.45;;;5.25;;
45011;SDS011;63444;48.148;11.542;2023-08-17T00:19:34;5.25;;;4.47;;
45011;SDS011;63444;48.148;11.542;2023-08-17T00:22:00;6.38;;;4.70;;
45011;SDS011;63444;48.148;11.542;2023-08-17T00:24:27;5.00;;;4.50;;
45011;SDS011;63444;48.148;11.542;2023-08-17T00:26:53;5.05;;;4.55;;
45011;SDS011;63444;48.148;11.542;2023-08-17T00:29:22;4.78;;;4.35;;
45011;SDS011;63444;48.148;11.542;2023-08-17T00:31:47;4.70;;;4.30;;
45011;SDS011;63444;48.148;11.542;2023-08-17T00:34:13;4.63;;;4.22;;
45011;SDS011;63444;48.148;11.542;2023-08-17T00:36:39;4.53;;;4.10;;
45011;SDS011;63444;48.148;11.542;2023-08-17T00:39:05;4.97;;;4.30;;
45011;SDS011;63444;48.148;11.542;2023-08-17T00:41:31;6.80;;;4.45;;
45011;SDS011;63444;48.148;11.542;2023-08-17T00:43:59;4.82;;;4.40;;
45011;SDS011;63444;48.148;11.542;2023-08-17T00:46:25;5.05;;;4.53;;
45011;SDS011;63444;48.148;11.542;2023-08-17T00:48:53;5.47;;;4.25;;
45011;SDS011;63444;48.148;11.542;2023-08-17T00:51:20;4.85;;;4.30;;
45011;SDS011;63444;48.148;11.542;2023-08-17T00:53:48;5.05;;;4.53;;
45011;SDS011;63444;48.148;11.542;2023-08-17T00:56:20;5.07;;;4.57;;
45011;SDS011;63444;48.148;11.542;2023-08-17T00:58:46;5.10;;;4.57;;
45011;SDS011;63444;48.148;11.542;2023-08-17T01:01:13;6.07;;;4.57;;
45011;SDS011;63444;48.148;11.542;2023-08-17T01:03:39;7.03;;;4.68;;
45011;SDS011;63444;48.148;11.542;2023-08-17T01:06:08;4.88;;;4.30;;
45011;SDS011;63444;48.148;11.542;2023-08-17T01:08:38;4.57;;;4.18;;
45011;SDS011;63444;48.148;11.542;2023-08-17T01:13:47;4.80;;;4.40;;
45011;SDS011;63444;48.148;11.542;2023-08-17T01:16:21;4.63;;;4.22;;
45011;SDS011;63444;48.148;11.542;2023-08-17T01:18:52;3.95;;;3.65;;
45011;SDS011;63444;48.148;11.542;2023-08-17T01:21:21;5.43;;;4.47;;
45011;SDS011;63444;48.148;11.542;2023-08-17T01:23:49;4.53;;;4.07;;
45011;SDS011;63444;48.148;11.542;2023-08-17T01:26:15;4.60;;;4.20;;
45011;SDS011;63444;48.148;11.542;2023-08-17T01:28:45;5.40;;;4.43;;
45011;SDS011;63444;48.148;11.542;2023-08-17T01:31:13;5.15;;;4.50;;
45011;SDS011;63444;48.148;11.542;2023-08-17T01:33:56;5.00;;;4.50;;
45011;SDS011;63444;48.148;11.542;2023-08-17T01:36:46;4.82;;;4.30;;
45011;SDS011;63444;48.148;11.542;2023-08-17T01:39:18;4.75;;;4.22;;
45011;SDS011;63444;48.148;11.542;2023-08-17T01:41:49;6.43;;;4.82;;
45011;SDS011;63444;48.148;11.542;2023-08-17T01:44:16;5.10;;;4.60;;
45011;SDS011;63444;48.148;11.542;2023-08-17T01:46:43;5.13;;;4.07;;
45011;SDS011;63444;48.148;11.542;2023-08-17T01:49:10;4.78;;;4.38;;
45011;SDS011;63444;48.148;11.542;2023-08-17T01:51:36;5.07;;;4.32;;
45011;SDS011;63444;48.148;11.542;2023-08-17T01:54:02;5.03;;;4.57;;
45011;SDS011;63444;48.148;11.542;2023-08-17T01:56:27;5.53;;;4.78;;
45011;SDS011;63444;48.148;11.542;2023-08-17T01:58:54;5.13;;;4.68;;
45011;SDS011;63444;48.148;11.542;2023-08-17T02:01:21;5.30;;;4.80;;
45011;SDS011;63444;48.148;11.542;2023-08-17T02:03:47;5.07;;;4.68;;
45011;SDS011;63444;48.148;11.542;2023-08-17T02:06:12;5.45;;;4.50;;
45011;SDS011;63444;48.148;11.542;2023-08-17T02:08:39;5.63;;;5.10;;
45011;SDS011;63444;48.148;11.542;2023-08-17T02:11:06;5.10;;;4.60;;
45011;SDS011;63444;48.148;11.542;2023-08-17T02:13:35;6.72;;;4.30;;
45011;SDS011;63444;48.148;11.542;2023-08-17T02:16:02;4.80;;;4.40;;
45011;SDS011;63444;48.148;11.542;2023-08-17T02:18:29;4.93;;;4.50;;
45011;SDS011;63444;48.148;11.542;2023-08-17T02:20:57;4.90;;;4.50;;
45011;SDS011;63444;48.148;11.542;2023-08-17T02:23:23;6.15;;;4.53;;
45011;SDS011;63444;48.148;11.542;2023-08-17T02:25:48;6.38;;;4.60;;
45011;SDS011;63444;48.148;11.542;2023-08-17T02:28:14;4.85;;;4.45;;
45011;SDS011;63444;48.148;11.542;2023-08-17T02:30:39;4.85;;;4.45;;
45011;SDS011;63444;48.148;11.542;2023-08-17T02:33:09;6.78;;;4.82;;
45011;SDS011;63444;48.148;11.542;2023-08-17T02:35:34;5.03;;;4.63;;
45011;SDS011;63444;48.148;11.542;2023-08-17T02:38:00;4.70;;;4.25;;
45011;SDS011;63444;48.148;11.542;2023-08-17T02:40:25;5.20;;;4.75;;
45011;SDS011;63444;48.148;11.542;2023-08-17T02:42:51;5.18;;;4.63;;
45011;SDS011;63444;48.148;11.542;2023-08-17T02:45:17;4.72;;;4.32;;
45011;SDS011;63444;48.148;11.542;2023-08-17T02:47:44;5.43;;;4.50;;
45011;SDS011;63444;48.148;11.542;2023-08-17T02:50:10;5.03;;;4.60;;
45011;SDS011;63444;48.148;11.542;2023-08-17T02:52:35;5.35;;;4.22;;
45011;SDS011;63444;48.148;11.542;2023-08-17T02:55:01;5.20;;;4.70;;
45011;SDS011;63444;48.148;11.542;2023-08-17T02:57:27;5.88;;;4.65;;
45011;SDS011;63444;48.148;11.542;2023-08-17T02:59:53;5.72;;;4.82;;
45011;SDS011;63444;48.148;11.542;2023-08-17T03:02:20;5.43;;;4.60;;
45011;SDS011;63444;48.148;11.542;2023-08-17T03:04:48;5.25;;;4.75;;
45011;SDS011;63444;48.148;11.542;2023-08-17T03:07:15;5.25;;;4.70;;
45011;SDS011;63444;48.148;11.542;2023-08-17T03:09:40;5.03;;;4.63;;
45011;SDS011;63444;48.148;11.542;2023-08-17T03:12:06;5.15;;;4.65;;
45011;SDS011;63444;48.148;11.542;2023-08-17T03:14:33;5.00;;;4.50;;
45011;SDS011;63444;48.148;11.542;2023-08-17T03:16:59;5.20;;;4.68;;
45011;SDS011;63444;48.148;11.542;2023-08-17T03:19:24;4.82;;;4.43;;
45011;SDS011;63444;48.148;11.542;2023-08-17T03:21:50;5.68;;;4.38;;
45011;SDS011;63444;48.148;11.542;2023-08-17T03:24:15;4.68;;;4.28;;
45011;SDS011;63444;48.148;11.542;2023-08-17T03:26:41;4.68;;;4.28;;
45011;SDS011;63444;48.148;11.542;2023-08-17T03:29:06;6.15;;;4.60;;
45011;SDS011;63444;48.148;11.542;2023-08-17T03:31:33;5.20;;;4.55;;
45011;SDS011;63444;48.148;11.542;2023-08-17T03:33:59;5.00;;;4.60;;
45011;SDS011;63444;48.148;11.542;2023-08-17T03:36:26;4.45;;;4.05;;
45011;SDS011;63444;48.148;11.542;2023-08-17T03:38:53;5.43;;;4.93;;
45011;SDS011;63444;48.148;11.542;2023-08-17T03:41:18;5.07;;;4.53;;
45011;SDS011;63444;48.148;11.542;2023-08-17T03:43:44;5.20;;;4.70;;
45011;SDS011;63444;48.148;11.542;2023-08-17T03:46:11;5.00;;;4.60;;
45011;SDS011;63444;48.148;11.542;2023-08-17T03:48:36;5.43;;;4.80;;
45011;SDS011;63444;48.148;11.542;2023-08-17T03:51:02;5.55;;;4.57;;
45011;SDS011;63444;48.148;11.542;2023-08-17T03:53:29;5.82;;;4.22;;
45011;SDS011;63444;48.148;11.542;2023-08-17T03:55:56;4.82;;;4.38;;
45011;SDS011;63444;48.148;11.542;2023-08-17T03:58:21;5.80;;;5.05;;
45011;SDS011;63444;48.148;11.542;2023-08-17T04:00:50;5.47;;;4.97;;
45011;SDS011;63444;48.148;11.542;2023-08-17T04:03:16;5.22;;;4.82;;
45011;SDS011;63444;48.148;11.542;2023-08-17T04:05:42;4.93;;;4.53;;
45011;SDS011;63444;48.148;11.542;2023-08-17T04:08:10;5.25;;;4.70;;
45011;SDS011;63444;48.148;11.542;2023-08-17T04:10:37;5.22;;;4.70;;
45011;SDS011;63444;48.148;11.542;2023-08-17T04:13:03;6.30;;;4.75;;
45011;SDS011;63444;48.148;11.542;2023-08-17T04:15:29;5.80;;;5.20;;
45011;SDS011;63444;48.148;11.542;2023-08-17T04:17:55;5.32;;;4.93;;
45011;SDS011;63444;48.148;11.542;2023-08-17T04:20:24;5.28;;;4.50;;
45011;SDS011;63444;48.148;11.542;2023-08-17T04:22:50;5.20;;;4.72;;
45011;SDS011;63444;48.148;11.542;2023-08-17T04:25:16;5.75;;;5.05;;
45011;SDS011;63444;48.148;11.542;2023-08-17T04:27:43;5.43;;;4.93;;
45011;SDS011;63444;48.148;11.542;2023-08-17T04:30:09;4.53;;;4.13;;
45011;SDS011;63444;48.148;11.542;2023-08-17T04:32:35;5.30;;;4.80;;
45011;SDS011;63444;48.148;11.542;2023-08-17T04:35:00;5.85;;;5.25;;
45011;SDS011;63444;48.148;11.542;2023-08-17T04:37:28;5.05;;;4.65;;
45011;SDS011;63444;48.148;11.542;2023-08-17T04:39:54;5.03;;;4.63;;
45011;SDS011;63444;48.148;11.542;2023-08-17T04:42:19;5.50;;;5.00;;
45011;SDS011;63444;48.148;11.542;2023-08-17T04:44:45;5.07;;;4.55;;
45011;SDS011;63444;48.148;11.542;2023-08-17T04:47:11;4.93;;;4.53;;
45011;SDS011;63444;48.148;11.542;2023-08-17T04:49:38;5.60;;;4.60;;
45011;SDS011;63444;48.148;11.542;2023-08-17T04:52:04;5.97;;;4.90;;
45011;SDS011;63444;48.148;11.542;2023-08-17T04:54:29;5.80;;;5.10;;
45011;SDS011;63444;48.148;11.542;2023-08-17T04:56:56;5.43;;;4.93;;
45011;SDS011;63444;48.148;11.542;2023-08-17T04:59:22;5.00;;;4.60;;
45011;SDS011;63444;48.148;11.542;2023-08-17T05:01:49;5.00;;;4.60;;
45011;SDS011;63444;48.148;11.542;2023-08-17T05:04:16;5.65;;;4.63;;
45011;SDS011;63444;48.148;11.542;2023-08-17T05:06:41;5.60;;;5.10;;
45011;SDS011;63444;48.148;11.542;2023-08-17T05:09:08;5.50;;;4.65;;
45011;SDS011;63444;48.148;11.542;2023-08-17T05:11:33;5.63;;;4.97;;
45011;SDS011;63444;48.148;11.542;2023-08-17T05:13:59;4.97;;;4.47;;
45011;SDS011;63444;48.148;11.542;2023-08-17T05:16:24;5.57;;;5.07;;
45011;SDS011;63444;48.148;11.542;2023-08-17T05:18:50;5.63;;;5.07;;
45011;SDS011;63444;48.148;11.542;2023-08-17T05:21:15;6.90;;;4.97;;
45011;SDS011;63444;48.148;11.542;2023-08-17T05:23:41;5.07;;;4.68;;
45011;SDS011;63444;48.148;11.542;2023-08-17T05:26:06;5.53;;;5.00;;
45011;SDS011;63444;48.148;11.542;2023-08-17T05:28:33;5.28;;;4.78;;
45011;SDS011;63444;48.148;11.542;2023-08-17T05:31:06;5.60;;;5.07;;
45011;SDS011;63444;48.148;11.542;2023-08-17T05:33:31;6.57;;;5.00;;
45011;SDS011;63444;48.148;11.542;2023-08-17T05:35:57;5.40;;;4.90;;
45011;SDS011;63444;48.148;11.542;2023-08-17T05:38:26;5.20;;;4.70;;
45011;SDS011;63444;48.148;11.542;2023-08-17T05:40:58;6.85;;;4.70;;
45011;SDS011;63444;48.148;11.542;2023-08-17T05:43:24;5.28;;;4.88;;
45011;SDS011;63444;48.148;11.542;2023-08-17T05:45:50;5.78;;;4.82;;
45011;SDS011;63444;48.148;11.542;2023-08-17T05:48:17;4.85;;;4.40;;
45011;SDS011;63444;48.148;11.542;2023-08-17T05:50:46;4.60;;;4.20;;
45011;SDS011;63444;48.148;11.542;2023-08-17T05:53:12;4.50;;;4.10;;
45011;SDS011;63444;48.148;11.542;2023-08-17T05:55:38;7.43;;;4.60;;
45011;SDS011;63444;48.148;11.542;2023-08-17T05:58:04;4.75;;;3.97;;
45011;SDS011;63444;48.148;11.542;2023-08-17T06:00:30;4.30;;;3.90;;
45011;SDS011;63444;48.148;11.542;2023-08-17T06:02:56;5.93;;;4.40;;
45011;SDS011;63444;48.148;11.542;2023-08-17T06:05:28;4.00;;;3.60;;
45011;SDS011;63444;48.148;11.542;2023-08-17T06:07:55;4.35;;;3.67;;
45011;SDS011;63444;48.148;11.542;2023-08-17T06:10:22;4.95;;;3.78;;
45011;SDS011;63444;48.148;11.542;2023-08-17T06:12:54;4.10;;;3.70;;
45011;SDS011;63444;48.148;11.542;2023-08-17T06:15:21;3.70;;;3.40;;
45011;SDS011;63444;48.148;11.542;2023-08-17T06:17:48;3.70;;;3.30;;
45011;SDS011;63444;48.148;11.542;2023-08-17T06:20:17;4.20;;;3.53;;
45011;SDS011;63444;48.148;11.542;2023-08-17T06:22:47;4.85;;;3.40;;
45011;SDS011;63444;48.148;11.542;2023-08-17T06:25:14;3.70;;;3.30;;
45011;SDS011;63444;48.148;11.542;2023-08-17T06:27:40;3.50;;;3.20;;
45011;SDS011;63444;48.148;11.542;2023-08-17T06:30:06;3.38;;;2.80;;
45011;SDS011;63444;48.148;11.542;2023-08-17T06:32:36;3.10;;;2.90;;
45011;SDS011;63444;48.148;11.542;2023-08-17T06:35:02;3.67;;;3.25;;
45011;SDS011;63444;48.148;11.542;2023-08-17T06:37:28;5.53;;;3.58;;
45011;SDS011;63444;48.148;11.542;2023-08-17T06:39:53;3.95;;;3.30;;
45011;SDS011;63444;48.148;11.542;2023-08-17T06:42:19;3.08;;;2.78;;
45011;SDS011;63444;48.148;11.542;2023-08-17T06:44:50;3.58;;;2.90;;
45011;SDS011;63444;48.148;11.542;2023-08-17T06:47:15;4.22;;;2.90;;
45011;SDS011;63444;48.148;11.542;2023-08-17T06:49:41;4.35;;;2.92;;
45011;SDS011;63444;48.148;11.542;2023-08-17T06:52:07;3.58;;;2.70;;
45011;SDS011;63444;48.148;11.542;2023-08-17T06:54:39;3.58;;;2.83;;
45011;SDS011;63444;48.148;11.542;2023-08-17T06:57:05;4.75;;;2.90;;
45011;SDS011;63444;48.148;11.542;2023-08-17T06:59:31;3.17;;;2.88;;
45011;SDS011;63444;48.148;11.542;2023-08-17T07:02:02;2.85;;;2.65;;
45011;SDS011;63444;48.148;11.542;2023-08-17T07:04:28;3.47;;;2.60;;
45011;SDS011;63444;48.148;11.542;2023-08-17T07:06:55;3.92;;;2.95;;
45011;SDS011;63444;48.148;11.542;2023-08-17T07:09:21;3.83;;;2.70;;
45011;SDS011;63444;48.148;11.542;2023-08-17T07:11:46;3.25;;;2.88;;
45011;SDS011;63444;48.148;11.542;2023-08-17T07:14:17;3.70;;;2.83;;
45011;SDS011;63444;48.148;11.542;2023-08-17T07:16:43;3.83;;;2.90;;
45011;SDS011;63444;48.148;11.542;2023-08-17T07:19:08;4.53;;;3.05;;
45011;SDS011;63444;48.148;11.542;2023-08-17T07:21:41;4.53;;;3.03;;
45011;SDS011;63444;48.148;11.542;2023-08-17T07:24:13;2.95;;;2.42;;
45011;SDS011;63444;48.148;11.542;2023-08-17T07:26:40;3.40;;;2.60;;
45011;SDS011;63444;48.148;11.542;2023-08-17T07:29:06;2.63;;;2.42;;
45011;SDS011;63444;48.148;11.542;2023-08-17T07:31:32;2.88;;;2.67;;
45011;SDS011;63444;48.148;11.542;2023-08-17T07:33:58;5.47;;;2.92;;
45011;SDS011;63444;48.148;11.542;2023-08-17T07:36:26;2.95;;;2.70;;
45011;SDS011;63444;48.148;11.542;2023-08-17T07:38:53;3.05;;;2.80;;
45011;SDS011;63444;48.148;11.542;2023-08-17T07:41:19;3.78;;;2.72;;
45011;SDS011;63444;48.148;11.542;2023-08-17T07:43:44;3.85;;;2.85;;
45011;SDS011;63444;48.148;11.542;2023-08-17T07:46:13;3.70;;;2.65;;
45011;SDS011;63444;48.148;11.542;2023-08-17T07:48:47;3.58;;;2.58;;
45011;SDS011;63444;48.148;11.542;2023-08-17T07:51:16;3.25;;;2.78;;
45011;SDS011;63444;48.148;11.542;2023-08-17T07:53:41;3.55;;;2.80;;
45011;SDS011;63444;48.148;11.542;2023-08-17T07:56:08;4.20;;;2.90;;
45011;SDS011;63444;48.148;11.542;2023-08-17T07:58:35;5.18;;;3.03;;
45011;SDS011;63444;48.148;11.542;2023-08-17T08:01:04;4.40;;;2.90;;
45011;SDS011;63444;48.148;11.542;2023-08-17T08:03:31;3.03;;;2.72;;
45011;SDS011;63444;48.148;11.542;2023-08-17T08:05:58;2.83;;;2.60;;
45011;SDS011;63444;48.148;11.542;2023-08-17T08:08:24;4.80;;;2.70;;
45011;SDS011;63444;48.148;11.542;2023-08-17T08:10:49;4.38;;;2.90;;
45011;SDS011;63444;48.148;11.542;2023-08-17T08:13:18;4.40;;;2.90;;
45011;SDS011;63444;48.148;11.542;2023-08-17T08:15:45;3.22;;;2.92;;
45011;SDS011;63444;48.148;11.542;2023-08-17T08:18:13;3.03;;;2.80;;
45011;SDS011;63444;48.148;11.542;2023-08-17T08:20:40;5.07;;;2.97;;
45011;SDS011;63444;48.148;11.542;2023-08-17T08:23:07;2.90;;;2.60;;
45011;SDS011;63444;48.148;11.542;2023-08-17T08:25:32;3.30;;;2.45;;
45011;SDS011;63444;48.148;11.542;2023-08-17T08:27:58;3.88;;;2.80;;
45011;SDS011;63444;48.148;11.542;2023-08-17T08:30:24;4.35;;;2.90;;
45011;SDS011;63444;48.148;11.542;2023-08-17T08:32:49;3.20;;;2.90;;
45011;SDS011;63444;48.148;11.542;2023-08-17T08:35:16;3.17;;;2.80;;
45011;SDS011;63444;48.148;11.542;2023-08-17T08:37:41;3.20;;;2.90;;
45011;SDS011;63444;48.148;11.542;2023-08-17T08:40:10;5.32;;;2.97;;
45011;SDS011;63444;48.148;11.542;2023-08-17T08:42:38;3.58;;;3.20;;
45011;SDS011;63444;48.148;11.542;2023-08-17T08:45:04;2.65;;;2.45;;
45011;SDS011;63444;48.148;11.542;2023-08-17T08:47:30;3.22;;;2.92;;
45011;SDS011;63444;48.148;11.542;2023-08-17T08:50:00;3.33;;;2.50;;
45011;SDS011;63444;48.148;11.542;2023-08-17T08:52:33;4.28;;;2.92;;
45011;SDS011;63444;48.148;11.542;2023-08-17T08:55:34;3.58;;;2.95;;
45011;SDS011;63444;48.148;11.542;2023-08-17T08:57:56;3.90;;;2.90;;
45011;SDS011;63444;48.148;11.542;2023-08-17T09:00:24;3.10;;;2.80;;
45011;SDS011;63444;48.148;11.542;2023-08-17T09:02:50;3.45;;;2.78;;
45011;SDS011;63444;48.148;11.542;2023-08-17T09:05:17;3.03;;;2.72;;
45011;SDS011;63444;48.148;11.542;2023-08-17T09:07:43;6.60;;;2.75;;
45011;SDS011;63444;48.148;11.542;2023-08-17T09:10:10;3.85;;;2.80;;
45011;SDS011;63444;48.148;11.542;2023-08-17T09:12:42;2.80;;;2.60;;
45011;SDS011;63444;48.148;11.542;2023-08-17T09:15:10;3.33;;;2.60;;
45011;SDS011;63444;48.148;11.542;2023-08-17T09:17:37;3.10;;;2.72;;
45011;SDS011;63444;48.148;11.542;2023-08-17T09:20:03;2.72;;;2.53;;
45011;SDS011;63444;48.148;11.542;2023-08-17T09:23:02;3.95;;;2.50;;
45011;SDS011;63444;48.148;11.542;2023-08-17T09:25:27;4.28;;;2.67;;
45011;SDS011;63444;48.148;11.542;2023-08-17T09:27:53;2.60;;;2.40;;
45011;SDS011;63444;48.148;11.542;2023-08-17T09:30:19;4.00;;;2.88;;
45011;SDS011;63444;48.148;11.542;2023-08-17T09:32:47;4.28;;;2.90;;
45011;SDS011;63444;48.148;11.542;2023-08-17T09:35:14;3.00;;;2.70;;
45011;SDS011;63444;48.148;11.542;2023-08-17T09:37:41;2.85;;;2.65;;
45011;SDS011;63444;48.148;11.542;2023-08-17T09:40:10;3.80;;;2.67;;
45011;SDS011;63444;48.148;11.542;2023-08-17T09:42:36;2.80;;;2.60;;
45011;SDS011;63444;48.148;11.542;2023-08-17T09:45:05;4.68;;;2.40;;
45011;SDS011;63444;48.148;11.542;2023-08-17T09:47:31;2.40;;;2.00;;
45011;SDS011;63444;48.148;11.542;2023-08-17T09:49:57;4.90;;;2.30;;
45011;SDS011;63444;48.148;11.542;2023-08-17T09:52:22;2.63;;;2.42;;
45011;SDS011;63444;48.148;11.542;2023-08-17T09:54:51;3.70;;;2.50;;
45011;SDS011;63444;48.148;11.542;2023-08-17T09:57:17;2.55;;;2.33;;
45011;SDS011;63444;48.148;11.542;2023-08-17T09:59:43;3.08;;;2.67;;
45011;SDS011;63444;48.148;11.542;2023-08-17T10:02:26;3.13;;;2.83;;
45011;SDS011;63444;48.148;11.542;2023-08-17T10:04:54;2.97;;;2.78;;
45011;SDS011;63444;48.148;11.542;2023-08-17T10:07:28;3.53;;;2.97;;
45011;SDS011;63444;48.148;11.542;2023-08-17T10:09:58;3.78;;;2.80;;
45011;SDS011;63444;48.148;11.542;2023-08-17T10:12:27;3.38;;;2.72;;
45011;SDS011;63444;48.148;11.542;2023-08-17T10:14:59;3.17;;;2.60;;
45011;SDS011;63444;48.148;11.542;2023-08-17T10:17:30;4.60;;;2.88;;
45011;SDS011;63444;48.148;11.542;2023-08-17T10:20:02;4.57;;;2.67;;
45011;SDS011;63444;48.148;11.542;2023-08-17T10:25:17;3.75;;;3.08;;
45011;SDS011;63444;48.148;11.542;2023-08-17T10:27:45;3.53;;;3.08;;
45011;SDS011;63444;48.148;11.542;2023-08-17T10:30:11;3.03;;;2.80;;
45011;SDS011;63444;48.148;11.542;2023-08-17T10:32:37;4.50;;;2.90;;
45011;SDS011;63444;48.148;11.542;2023-08-17T10:35:05;3.40;;;2.92;;
45011;SDS011;63444;48.148;11.542;2023-08-17T10:37:31;5.22;;;3.25;;
45011;SDS011;63444;48.148;11.542;2023-08-17T10:39:58;5.63;;;3.17;;
45011;SDS011;63444;48.148;11.542;2023-08-17T10:42:33;3.95;;;3.08;;
45011;SDS011;63444;48.148;11.542;2023-08-17T10:50:35;3.85;;;2.95;;
45011;SDS011;63444;48.148;11.542;2023-08-17T10:53:11;4.25;;;3.30;;
45011;SDS011;63444;48.148;11.542;2023-08-17T10:55:45;3.03;;;2.83;;
45011;SDS011;63444;48.148;11.542;2023-08-17T10:58:17;4.88;;;3.25;;
45011;SDS011;63444;48.148;11.542;2023-08-17T11:00:44;3.53;;;3.03;;
45011;SDS011;63444;48.148;11.542;2023-08-17T11:03:17;3.35;;;3.03;;
45011;SDS011;63444;48.148;11.542;2023-08-17T11:05:46;3.30;;;2.95;;
45011;SDS011;63444;48.148;11.542;2023-08-17T11:11:11;2.60;;;2.40;;
45011;SDS011;63444;48.148;11.542;2023-08-17T11:13:39;3.13;;;2.58;;
45011;SDS011;63444;48.148;11.542;2023-08-17T11:16:10;3.35;;;2.70;;
45011;SDS011;63444;48.148;11.542;2023-08-17T11:18:37;4.18;;;2.50;;
45011;SDS011;63444;48.148;11.542;2023-08-17T11:21:04;2.60;;;2.40;;
45011;SDS011;63444;48.148;11.542;2023-08-17T11:23:33;3.30;;;3.00;;
45011;SDS011;63444;48.148;11.542;2023-08-17T11:25:59;2.88;;;2.67;;
45011;SDS011;63444;48.148;11.542;2023-08-17T11:28:26;3.03;;;2.70;;
45011;SDS011;63444;48.148;11.542;2023-08-17T11:31:02;3.28;;;2.58;;
45011;SDS011;63444;48.148;11.542;2023-08-17T11:33:29;6.00;;;3.17;;
45011;SDS011;63444;48.148;11.542;2023-08-17T11:35:58;3.20;;;2.90;;
45011;SDS011;63444;48.148;11.542;2023-08-17T11:38:25;3.33;;;3.03;;
45011;SDS011;63444;48.148;11.542;2023-08-17T11:40:55;4.30;;;3.00;;
45011;SDS011;63444;48.148;11.542;2023-08-17T11:43:23;4.30;;;3.03;;
45011;SDS011;63444;48.148;11.542;2023-08-17T11:45:49;5.03;;;2.95;;
45011;SDS011;63444;48.148;11.542;2023-08-17T11:48:18;3.70;;;3.33;;
45011;SDS011;63444;48.148;11.542;2023-08-17T11:50:45;3.97;;;3.20;;
45011;SDS011;63444;48.148;11.542;2023-08-17T11:53:14;4.03;;;2.90;;
45011;SDS011;63444;48.148;11.542;2023-08-17T11:55:42;3.47;;;3.17;;
45011;SDS011;63444;48.148;11.542;2023-08-17T11:58:09;3.53;;;3.03;;
45011;SDS011;63444;48.148;11.542;2023-08-17T12:00:41;8.75;;;3.58;;
45011;SDS011;63444;48.148;11.542;2023-08-17T12:03:12;3.70;;;3.30;;
45011;SDS011;63444;48.148;11.542;2023-08-17T12:05:42;4.18;;;3.60;;
45011;SDS011;63444;48.148;11.542;2023-08-17T12:08:09;3.80;;;3.45;;
45011;SDS011;63444;48.148;11.542;2023-08-17T12:10:36;3.38;;;3.15;;
45011;SDS011;63444;48.148;11.542;2023-08-17T12:13:04;6.32;;;3.55;;
45011;SDS011;63444;48.148;11.542;2023-08-17T12:15:34;5.10;;;3.10;;
45011;SDS011;63444;48.148;11.542;2023-08-17T12:18:01;6.07;;;3.65;;
45011;SDS011;63444;48.148;11.542;2023-08-17T12:20:29;3.88;;;2.80;;
45011;SDS011;63444;48.148;11.542;2023-08-17T12:22:57;3.50;;;2.95;;
45011;SDS011;63444;48.148;11.542;2023-08-17T12:25:26;3.53;;;3.22;;
45011;SDS011;63444;48.148;11.542;2023-08-17T12:27:52;5.75;;;3.40;;
45011;SDS011;63444;48.148;11.542;2023-08-17T12:30:25;3.40;;;3.10;;
45011;SDS011;63444;48.148;11.542;2023-08-17T12:32:52;3.78;;;3.47;;
45011;SDS011;63444;48.148;11.542;2023-08-17T12:35:18;9.52;;;3.40;;
45011;SDS011;63444;48.148;11.542;2023-08-17T12:37:46;3.17;;;2.97;;
45011;SDS011;63444;48.148;11.542;2023-08-17T12:40:15;3.58;;;3.28;;
45011;SDS011;63444;48.148;11.542;2023-08-17T12:42:43;3.33;;;3.08;;
45011;SDS011;63444;48.148;11.542;2023-08-17T12:45:09;3.72;;;3.40;;
45011;SDS011;63444;48.148;11.542;2023-08-17T12:47:36;4.22;;;3.40;;
45011;SDS011;63444;48.148;11.542;2023-08-17T12:50:04;5.63;;;3.10;;
45011;SDS011;63444;48.148;11.542;2023-08-17T12:52:30;3.80;;;3.50;;
45011;SDS011;63444;48.148;11.542;2023-08-17T12:54:57;4.43;;;3.20;;
45011;SDS011;63444;48.148;11.542;2023-08-17T12:57:24;3.83;;;3.53;;
45011;SDS011;63444;48.148;11.542;2023-08-17T12:59:49;3.50;;;3.22;;
45011;SDS011;63444;48.148;11.542;2023-08-17T13:02:15;3.45;;;2.95;;
45011;SDS011;63444;48.148;11.542;2023-08-17T13:04:41;4.93;;;3.60;;
45011;SDS011;63444;48.148;11.542;2023-08-17T13:07:07;4.38;;;2.88;;
45011;SDS011;63444;48.148;11.542;2023-08-17T13:09:34;4.45;;;2.90;;
45011;SDS011;63444;48.148;11.542;2023-08-17T13:11:59;2.88;;;2.65;;
45011;SDS011;63444;48.148;11.542;2023-08-17T13:14:26;3.22;;;2.92;;
45011;SDS011;63444;48.148;11.542;2023-08-17T13:16:52;3.20;;;2.90;;
45011;SDS011;63444;48.148;11.542;2023-08-17T13:19:18;5.50;;;2.78;;
45011;SDS011;63444;48.148;11.542;2023-08-17T13:21:44;3.45;;;3.15;;
45011;SDS011;63444;48.148;11.542;2023-08-17T13:24:10;3.03;;;2.72;;
45011;SDS011;63444;48.148;11.542;2023-08-17T13:26:36;2.60;;;2.40;;
45011;SDS011;63444;48.148;11.542;2023-08-17T13:29:02;3.97;;;2.50;;
45011;SDS011;63444;48.148;11.542;2023-08-17T13:31:29;2.97;;;2.70;;
45011;SDS011;63444;48.148;11.542;2023-08-17T13:33:55;2.92;;;2.72;;
45011;SDS011;63444;48.148;11.542;2023-08-17T13:36:20;3.40;;;2.70;;
45011;SDS011;63444;48.148;11.542;2023-08-17T13:38:46;4.25;;;2.90;;
45011;SDS011;63444;48.148;11.542;2023-08-17T13:41:12;3.67;;;2.78;;
45011;SDS011;63444;48.148;11.542;2023-08-17T13:43:38;3.15;;;2.85;;
45011;SDS011;63444;48.148;11.542;2023-08-17T13:46:04;3.33;;;2.95;;
45011;SDS011;63444;48.148;11.542;2023-08-17T13:48:31;4.07;;;3.00;;
45011;SDS011;63444;48.148;11.542;2023-08-17T13:50:58;5.03;;;2.88;;
45011;SDS011;63444;48.148;11.542;2023-08-17T13:53:24;3.45;;;3.15;;
45011;SDS011;63444;48.148;11.542;2023-08-17T13:55:50;3.50;;;3.20;;
45011;SDS011;63444;48.148;11.542;2023-08-17T13:58:16;3.30;;;3.10;;
45011;SDS011;63444;48.148;11.542;2023-08-17T14:00:45;3.60;;;3.30;;
45011;SDS011;63444;48.148;11.542;2023-08-17T14:03:11;3.35;;;2.90;;
45011;SDS011;63444;48.148;11.542;2023-08-17T14:05:39;3.63;;;3.33;;
45011;SDS011;63444;48.148;11.542;2023-08-17T14:08:05;3.58;;;3.28;;
45011;SDS011;63444;48.148;11.542;2023-08-17T14:10:31;3.10;;;2.90;;
45011;SDS011;63444;48.148;11.542;2023-08-17T14:13:01;3.35;;;3.05;;
45011;SDS011;63444;48.148;11.542;2023-08-17T14:15:29;3.47;;;3.20;;
45011;SDS011;63444;48.148;11.542;2023-08-17T14:17:55;3.83;;;3.25;;
45011;SDS011;63444;48.148;11.542;2023-08-17T14:20:21;4.25;;;3.47;;
45011;SDS011;63444;48.148;11.542;2023-08-17T14:22:46;3.97;;;3.63;;
45011;SDS011;63444;48.148;11.542;2023-08-17T14:25:13;5.25;;;3.95;;
45011;SDS011;63444;48.148;11.542;2023-08-17T14:27:40;4.47;;;3.70;;
45011;SDS011;63444;48.148;11.542;2023-08-17T14:30:08;4.40;;;4.00;;
45011;SDS011;63444;48.148;11.542;2023-08-17T14:32:34;4.75;;;4.35;;
45011;SDS011;63444;48.148;11.542;2023-08-17T14:34:59;4.40;;;4.10;;
45011;SDS011;63444;48.148;11.542;2023-08-17T14:37:26;4.47;;;4.07;;
45011;SDS011;63444;48.148;11.542;2023-08-17T14:39:52;5.35;;;4.00;;
45011;SDS011;63444;48.148;11.542;2023-08-17T14:42:17;5.63;;;4.18;;
45011;SDS011;63444;48.148;11.542;2023-08-17T14:44:43;6.72;;;4.70;;
45011;SDS011;63444;48.148;11.542;2023-08-17T14:47:09;4.68;;;4.22;;